createdAt,value
2024-03-05T00:00:55.260Z,101151.00
2024-03-05T00:03:22.310Z,101149.00
2024-03-05T00:05:49.213Z,101148.00
2024-03-05T00:08:16.246Z,101152.00
2024-03-05T00:10:43.211Z,101146.00
2024-03-05T00:13:12.480Z,101138.00
2024-03-05T00:15:40.939Z,101142.00
2024-03-05T00:18:11.184Z,101139.00
2024-03-05T00:20:37.932Z,101141.00
2024-03-05T00:23:05.035Z,101140.00
2024-03-05T00:25:31.975Z,101144.00
2024-03-05T00:27:58.853Z,101138.00
2024-03-05T00:30:25.614Z,101142.00
2024-03-05T00:32:52.404Z,101146.00
2024-03-05T00:35:19.318Z,101142.00
2024-03-05T00:37:46.024Z,101140.00
2024-03-05T00:40:12.863Z,101138.00
2024-03-05T00:42:39.703Z,101137.00
2024-03-05T00:45:08.513Z,101127.00
2024-03-05T00:47:36.684Z,101133.00
2024-03-05T00:50:08.299Z,101136.00
2024-03-05T00:52:38.534Z,101133.00
2024-03-05T00:55:08.772Z,101136.00
2024-03-05T00:57:39.850Z,101131.00
2024-03-05T01:00:07.202Z,101131.00
2024-03-05T01:02:34.267Z,101124.00
2024-03-05T01:05:01.170Z,101128.00
2024-03-05T01:07:28.166Z,101133.00
2024-03-05T01:09:54.952Z,101134.00
2024-03-05T01:12:21.831Z,101137.00
2024-03-05T01:14:48.513Z,101130.00
2024-03-05T01:17:16.043Z,101132.00
2024-03-05T01:19:42.948Z,101128.00
2024-03-05T01:22:09.951Z,101125.00
2024-03-05T01:24:36.926Z,101124.00
2024-03-05T01:27:06.653Z,101125.00
2024-03-05T01:29:33.594Z,101118.00
2024-03-05T01:32:02.993Z,101124.00
2024-03-05T01:34:30.202Z,101124.00
2024-03-05T01:36:58.671Z,101130.00
2024-03-05T01:39:30.249Z,101124.00
2024-03-05T01:41:58.078Z,101117.00
2024-03-05T01:44:25.716Z,101116.00
2024-03-05T01:46:55.587Z,101113.00
2024-03-05T01:49:23.390Z,101115.00
2024-03-05T01:51:51.074Z,101118.00
2024-03-05T01:54:19.223Z,101115.00
2024-03-05T01:56:49.894Z,101120.00
2024-03-05T01:59:18.644Z,101125.00
2024-03-05T02:01:48.677Z,101119.00
2024-03-05T02:04:17.135Z,101123.00
2024-03-05T02:06:44.427Z,101119.00
2024-03-05T02:09:14.367Z,101115.00
2024-03-05T02:11:53.010Z,101120.00
2024-03-05T02:14:27.982Z,101119.00
2024-03-05T02:16:59.338Z,101119.00
2024-03-05T02:19:27.389Z,101116.00
2024-03-05T02:22:04.981Z,101122.00
2024-03-05T02:24:31.991Z,101121.00
2024-03-05T02:27:03.046Z,101127.00
2024-03-05T02:29:32.447Z,101127.00
2024-03-05T02:31:59.361Z,101116.00
2024-03-05T02:34:27.327Z,101118.00
2024-03-05T02:36:54.241Z,101115.00
2024-03-05T02:39:21.442Z,101116.00
2024-03-05T02:41:48.167Z,101118.00
2024-03-05T02:44:14.855Z,101113.00
2024-03-05T02:46:41.535Z,101117.00
2024-03-05T02:49:08.585Z,101117.00
2024-03-05T02:51:35.942Z,101117.00
2024-03-05T02:54:02.619Z,101121.00
2024-03-05T02:56:29.307Z,101126.00
2024-03-05T02:58:56.421Z,101128.00
2024-03-05T03:01:23.326Z,101123.00
2024-03-05T03:03:50.055Z,101124.00
2024-03-05T03:06:17.739Z,101132.00
2024-03-05T03:08:44.925Z,101124.00
2024-03-05T03:11:18.990Z,101123.00
2024-03-05T03:13:51.493Z,101126.00
2024-03-05T03:16:18.751Z,101132.00
2024-03-05T03:18:45.616Z,101129.00
2024-03-05T03:21:12.935Z,101134.00
2024-03-05T03:23:39.672Z,101125.00
2024-03-05T03:26:08.047Z,101127.00
2024-03-05T03:28:34.933Z,101129.00
2024-03-05T03:31:01.743Z,101135.00
2024-03-05T03:33:28.535Z,101130.00
2024-03-05T03:35:56.994Z,101143.00
2024-03-05T03:38:25.063Z,101136.00
2024-03-05T03:40:53.736Z,101139.00
2024-03-05T03:43:21.075Z,101131.00
2024-03-05T03:45:49.307Z,101133.00
2024-03-05T03:48:16.390Z,101137.00
2024-03-05T03:50:45.543Z,101136.00
2024-03-05T03:53:12.238Z,101136.00
2024-03-05T03:55:38.981Z,101137.00
2024-03-05T03:58:05.733Z,101142.00
2024-03-05T04:00:33.984Z,101141.00
2024-03-05T04:03:01.006Z,101141.00
2024-03-05T04:05:27.759Z,101135.00
2024-03-05T04:07:54.560Z,101142.00
2024-03-05T04:10:21.929Z,101141.00
2024-03-05T04:12:48.687Z,101142.00
2024-03-05T04:15:22.430Z,101148.00
2024-03-05T04:17:50.420Z,101142.00
2024-03-05T04:20:18.242Z,101135.00
2024-03-05T04:22:45.123Z,101145.00
2024-03-05T04:25:12.016Z,101142.00
2024-03-05T04:27:43.612Z,101142.00
2024-03-05T04:30:14.652Z,101142.00
2024-03-05T04:32:56.261Z,101145.00
2024-03-05T04:35:26.519Z,101141.00
2024-03-05T04:37:53.449Z,101148.00
2024-03-05T04:40:20.324Z,101157.00
2024-03-05T04:42:49.132Z,101153.00
2024-03-05T04:45:16.728Z,101158.00
2024-03-05T04:47:46.147Z,101153.00
2024-03-05T04:50:15.976Z,101153.00
2024-03-05T04:52:43.143Z,101153.00
2024-03-05T04:55:11.350Z,101153.00
2024-03-05T04:57:38.318Z,101155.00
2024-03-05T05:00:18.759Z,101156.00
2024-03-05T05:02:46.270Z,101159.00
2024-03-05T05:05:12.995Z,101150.00
2024-03-05T05:07:40.481Z,101157.00
2024-03-05T05:10:08.994Z,101157.00
2024-03-05T05:12:36.606Z,101152.00
2024-03-05T05:15:04.176Z,101157.00
2024-03-05T05:17:30.975Z,101161.00
2024-03-05T05:20:01.252Z,101161.00
2024-03-05T05:22:28.453Z,101164.00
2024-03-05T05:24:55.192Z,101164.00
2024-03-05T05:27:23.141Z,101164.00
2024-03-05T05:29:50.822Z,101162.00
2024-03-05T05:32:17.989Z,101165.00
2024-03-05T05:34:45.190Z,101167.00
2024-03-05T05:37:11.874Z,101165.00
2024-03-05T05:39:38.553Z,101162.00
2024-03-05T05:42:05.975Z,101161.00
2024-03-05T05:44:32.766Z,101173.00
2024-03-05T05:46:59.640Z,101170.00
2024-03-05T05:49:32.577Z,101177.00
2024-03-05T05:51:59.632Z,101172.00
2024-03-05T05:54:26.461Z,101174.00
2024-03-05T05:56:56.584Z,101181.00
2024-03-05T05:59:23.326Z,101173.00
2024-03-05T06:01:50.085Z,101176.00
2024-03-05T06:04:20.482Z,101173.00
2024-03-05T06:06:47.241Z,101182.00
2024-03-05T06:09:14.517Z,101186.00
2024-03-05T06:11:41.346Z,101184.00
2024-03-05T06:14:08.561Z,101183.00
2024-03-05T06:16:35.945Z,101187.00
2024-03-05T06:19:02.844Z,101198.00
2024-03-05T06:21:29.802Z,101193.00
2024-03-05T06:23:56.726Z,101200.00
2024-03-05T06:26:23.720Z,101204.00
2024-03-05T06:28:50.447Z,101198.00
2024-03-05T06:31:17.495Z,101201.00
2024-03-05T06:33:45.686Z,101206.00
2024-03-05T06:36:13.567Z,101208.00
2024-03-05T06:38:40.735Z,101216.00
2024-03-05T06:41:07.919Z,101212.00
2024-03-05T06:43:38.300Z,101209.00
2024-03-05T06:46:14.460Z,101210.00
2024-03-05T06:48:49.102Z,101210.00
2024-03-05T06:51:42.211Z,101215.00
2024-03-05T06:54:28.255Z,101210.00
2024-03-05T06:56:54.975Z,101220.00
2024-03-05T06:59:22.247Z,101226.00
2024-03-05T07:01:49.171Z,101224.00
2024-03-05T07:04:19.181Z,101229.00
2024-03-05T07:06:45.838Z,101225.00
2024-03-05T07:09:15.096Z,101231.00
2024-03-05T07:11:42.106Z,101230.00
2024-03-05T07:14:09.189Z,101228.00
2024-03-05T07:16:35.924Z,101234.00
2024-03-05T07:19:02.867Z,101226.00
2024-03-05T07:21:29.749Z,101235.00
2024-03-05T07:23:57.750Z,101238.00
2024-03-05T07:26:24.692Z,101230.00
2024-03-05T07:28:53.886Z,101240.00
2024-03-05T07:31:20.945Z,101234.00
2024-03-05T07:33:51.645Z,101239.00
2024-03-05T07:36:20.513Z,101239.00
2024-03-05T07:38:47.340Z,101241.00
2024-03-05T07:41:22.506Z,101235.00
2024-03-05T07:43:56.435Z,101238.00
2024-03-05T07:46:23.218Z,101242.00
2024-03-05T07:48:49.907Z,101244.00
2024-03-05T07:51:23.899Z,101240.00
2024-03-05T07:53:52.818Z,101239.00
2024-03-05T07:56:19.588Z,101245.00
2024-03-05T07:58:46.614Z,101251.00
2024-03-05T08:01:15.903Z,101249.00
2024-03-05T08:03:42.900Z,101255.00
2024-03-05T08:06:09.866Z,101250.00
2024-03-05T08:08:36.658Z,101255.00
2024-03-05T08:11:04.014Z,101261.00
2024-03-05T08:13:30.907Z,101252.00
2024-03-05T08:15:57.714Z,101263.00
2024-03-05T08:18:24.429Z,101263.00
2024-03-05T08:20:52.090Z,101263.00
2024-03-05T08:23:18.785Z,101263.00
2024-03-05T08:25:49.484Z,101266.00
2024-03-05T08:28:16.369Z,101261.00
2024-03-05T08:30:43.986Z,101266.00
2024-03-05T08:33:11.335Z,101261.00
2024-03-05T08:35:38.531Z,101263.00
2024-03-05T08:38:05.456Z,101275.00
2024-03-05T08:40:36.945Z,101275.00
2024-03-05T08:43:05.261Z,101274.00
2024-03-05T08:45:33.155Z,101271.00
2024-03-05T08:48:00.286Z,101272.00
2024-03-05T08:50:30.683Z,101278.00
2024-03-05T08:52:59.746Z,101284.00
2024-03-05T08:55:27.975Z,101282.00
2024-03-05T08:57:56.328Z,101283.00
2024-03-05T09:00:33.329Z,101292.00
2024-03-05T09:03:10.537Z,101296.00
2024-03-05T09:05:37.679Z,101286.00
2024-03-05T09:08:06.561Z,101295.00
2024-03-05T09:10:35.491Z,101292.00
2024-03-05T09:13:02.769Z,101296.00
2024-03-05T09:15:29.574Z,101292.00
2024-03-05T09:17:56.428Z,101302.00
2024-03-05T09:20:24.586Z,101303.00
2024-03-05T09:22:51.427Z,101300.00
2024-03-05T09:25:18.610Z,101299.00
2024-03-05T09:27:48.584Z,101296.00
2024-03-05T09:30:16.636Z,101301.00
2024-03-05T09:32:48.180Z,101301.00
2024-03-05T09:35:16.586Z,101302.00
2024-03-05T09:37:46.962Z,101306.00
2024-03-05T09:40:20.888Z,101308.00
2024-03-05T09:42:48.344Z,101306.00
2024-03-05T09:45:19.303Z,101297.00
2024-03-05T09:47:48.764Z,101306.00
2024-03-05T09:50:18.261Z,101303.00
2024-03-05T09:52:49.297Z,101305.00
2024-03-05T09:55:17.888Z,101315.00
2024-03-05T09:57:48.949Z,101309.00
2024-03-05T10:00:20.001Z,101314.00
2024-03-05T10:02:53.866Z,101319.00
2024-03-05T10:05:21.266Z,101316.00
2024-03-05T10:07:49.946Z,101322.00
2024-03-05T10:10:21.589Z,101322.00
2024-03-05T10:12:50.466Z,101321.00
2024-03-05T10:15:20.129Z,101331.00
2024-03-05T10:17:51.868Z,101321.00
2024-03-05T10:20:33.522Z,101328.00
2024-03-05T10:23:03.791Z,101333.00
2024-03-05T10:25:36.928Z,101324.00
2024-03-05T10:28:05.323Z,101321.00
2024-03-05T10:30:37.770Z,101327.00
2024-03-05T10:33:12.151Z,101328.00
2024-03-05T10:35:40.214Z,101322.00
2024-03-05T10:38:13.567Z,101325.00
2024-03-05T10:40:41.465Z,101327.00
2024-03-05T10:43:09.717Z,101340.00
2024-03-05T10:45:41.974Z,101335.00
2024-03-05T10:48:11.955Z,101330.00
2024-03-05T10:50:43.325Z,101326.00
2024-03-05T10:53:10.679Z,101332.00
2024-03-05T10:55:42.083Z,101332.00
2024-03-05T10:58:14.193Z,101331.00
2024-03-05T11:00:47.586Z,101330.00
2024-03-05T11:03:18.783Z,101330.00
2024-03-05T11:05:48.716Z,101336.00
2024-03-05T11:08:19.702Z,101337.00
2024-03-05T11:10:50.977Z,101348.00
2024-03-05T11:13:19.022Z,101348.00
2024-03-05T11:15:46.400Z,101343.00
2024-03-05T11:18:35.074Z,101342.00
2024-03-05T11:21:12.570Z,101350.00
2024-03-05T11:23:54.233Z,101346.00
2024-03-05T11:26:26.010Z,101344.00
2024-03-05T11:29:04.617Z,101349.00
2024-03-05T11:31:31.519Z,101344.00
2024-03-05T11:34:10.122Z,101346.00
2024-03-05T11:36:37.873Z,101349.00
2024-03-05T11:39:06.262Z,101348.00
2024-03-05T11:41:37.027Z,101350.00
2024-03-05T11:44:04.837Z,101352.00
2024-03-05T11:46:41.948Z,101351.00
2024-03-05T11:49:10.521Z,101352.00
2024-03-05T11:51:41.467Z,101349.00
2024-03-05T11:54:13.741Z,101361.00
2024-03-05T11:56:42.538Z,101349.00
2024-03-05T11:59:11.758Z,101358.00
2024-03-05T12:01:41.187Z,101360.00
2024-03-05T12:04:09.671Z,101362.00
2024-03-05T12:06:37.878Z,101356.00
2024-03-05T12:09:20.244Z,101368.00
2024-03-05T12:12:07.111Z,101365.00
2024-03-05T12:14:35.950Z,101365.00
2024-03-05T12:17:13.722Z,101362.00
2024-03-05T12:19:41.717Z,101361.00
2024-03-05T12:22:10.297Z,101356.00
2024-03-05T12:24:38.132Z,101356.00
2024-03-05T12:27:07.135Z,101357.00
2024-03-05T12:29:41.693Z,101360.00
2024-03-05T12:32:10.485Z,101367.00
2024-03-05T12:34:40.590Z,101360.00
2024-03-05T12:37:10.584Z,101352.00
2024-03-05T12:39:41.483Z,101368.00
2024-03-05T12:42:14.747Z,101360.00
2024-03-05T12:44:42.662Z,101358.00
2024-03-05T12:47:14.988Z,101361.00
2024-03-05T12:49:51.627Z,101366.00
2024-03-05T12:52:20.633Z,101364.00
2024-03-05T12:54:57.466Z,101363.00
2024-03-05T12:57:34.885Z,101362.00
2024-03-05T13:00:07.328Z,101357.00
2024-03-05T13:02:34.270Z,101358.00
2024-03-05T13:05:01.614Z,101364.00
2024-03-05T13:07:31.768Z,101370.00
2024-03-05T13:10:00.580Z,101362.00
2024-03-05T13:12:27.932Z,101372.00
2024-03-05T13:14:54.671Z,101379.00
2024-03-05T13:17:22.296Z,101370.00
2024-03-05T13:19:49.055Z,101375.00
2024-03-05T13:22:15.867Z,101376.00
2024-03-05T13:24:42.698Z,101377.00
2024-03-05T13:27:09.312Z,101380.00
2024-03-05T13:29:37.193Z,101378.00
2024-03-05T13:32:06.961Z,101384.00
2024-03-05T13:34:33.914Z,101380.00
2024-03-05T13:37:02.921Z,101382.00
2024-03-05T13:39:29.588Z,101381.00
2024-03-05T13:41:56.485Z,101382.00
2024-03-05T13:44:24.232Z,101381.00
2024-03-05T13:46:53.363Z,101386.00
2024-03-05T13:49:22.128Z,101383.00
2024-03-05T13:51:49.590Z,101384.00
2024-03-05T13:54:16.573Z,101379.00
2024-03-05T13:56:44.578Z,101382.00
2024-03-05T13:59:12.241Z,101381.00
2024-03-05T14:01:40.534Z,101386.00
2024-03-05T14:04:10.833Z,101386.00
2024-03-05T14:06:39.203Z,101380.00
2024-03-05T14:09:13.692Z,101390.00
2024-03-05T14:11:43.476Z,101381.00
2024-03-05T14:14:17.502Z,101378.00
2024-03-05T14:16:45.769Z,101379.00
2024-03-05T14:19:12.582Z,101387.00
2024-03-05T14:22:05.511Z,101384.00
2024-03-05T14:24:32.372Z,101386.00
2024-03-05T14:27:00.828Z,101390.00
2024-03-05T14:29:29.449Z,101395.00
2024-03-05T14:31:56.404Z,101391.00
2024-03-05T14:34:23.290Z,101391.00
2024-03-05T14:36:53.411Z,101384.00
2024-03-05T14:39:22.543Z,101396.00
2024-03-05T14:42:18.923Z,101391.00
2024-03-05T14:44:47.305Z,101386.00
2024-03-05T14:47:14.118Z,101391.00
2024-03-05T14:49:41.091Z,101388.00
2024-03-05T14:52:10.954Z,101395.00
2024-03-05T14:54:46.855Z,101389.00
2024-03-05T14:57:13.949Z,101388.00
2024-03-05T14:59:41.192Z,101392.00
2024-03-05T15:04:48.991Z,101400.00
2024-03-05T15:07:22.338Z,101404.00
2024-03-05T15:09:49.549Z,101400.00
2024-03-05T15:12:48.821Z,101407.00
2024-03-05T15:15:25.303Z,101411.00
2024-03-05T15:17:52.494Z,101419.00
2024-03-05T15:20:20.394Z,101411.00
2024-03-05T15:22:51.423Z,101411.00
2024-03-05T15:25:24.515Z,101410.00
2024-03-05T15:28:02.812Z,101416.00
2024-03-05T15:30:36.142Z,101415.00
2024-03-05T15:33:03.703Z,101417.00
2024-03-05T15:35:31.415Z,101418.00
2024-03-05T15:38:21.291Z,101422.00
2024-03-05T15:40:58.757Z,101421.00
2024-03-05T15:43:41.940Z,101425.00
2024-03-05T15:46:10.439Z,101429.00
2024-03-05T15:48:37.346Z,101420.00
2024-03-05T15:51:31.945Z,101431.00
2024-03-05T15:53:58.683Z,101436.00
2024-03-05T15:56:58.075Z,101429.00
2024-03-05T15:59:51.923Z,101433.00
2024-03-05T16:02:19.983Z,101437.00
2024-03-05T16:05:05.410Z,101438.00
2024-03-05T16:07:35.522Z,101441.00
2024-03-05T16:10:14.897Z,101439.00
2024-03-05T16:12:52.157Z,101445.00
2024-03-05T16:15:34.583Z,101435.00
2024-03-05T16:18:01.913Z,101436.00
2024-03-05T16:20:29.819Z,101441.00
2024-03-05T16:22:57.107Z,101450.00
2024-03-05T16:26:10.736Z,101444.00
2024-03-05T16:28:40.347Z,101449.00
2024-03-05T16:31:07.755Z,101449.00
2024-03-05T16:33:35.093Z,101451.00
2024-03-05T16:36:28.196Z,101453.00
2024-03-05T16:38:55.125Z,101456.00
2024-03-05T16:41:39.317Z,101467.00
2024-03-05T16:44:31.173Z,101465.00
2024-03-05T16:46:58.026Z,101473.00
2024-03-05T16:49:25.086Z,101479.00
2024-03-05T16:51:52.034Z,101479.00
2024-03-05T16:54:18.984Z,101480.00
2024-03-05T16:56:56.743Z,101479.00
2024-03-05T16:59:23.627Z,101487.00
2024-03-05T17:01:50.930Z,101485.00
2024-03-05T17:04:22.385Z,101486.00
2024-03-05T17:06:49.577Z,101489.00
2024-03-05T17:10:10.691Z,101485.00
2024-03-05T17:12:57.060Z,101488.00
2024-03-05T17:15:33.467Z,101492.00
2024-03-05T17:18:04.655Z,101496.00
2024-03-05T17:20:34.863Z,101496.00
2024-03-05T17:23:05.859Z,101499.00
2024-03-05T17:25:49.073Z,101499.00
2024-03-05T17:28:15.886Z,101499.00
2024-03-05T17:31:14.444Z,101495.00
2024-03-05T17:33:41.210Z,101509.00
2024-03-05T17:36:08.365Z,101502.00
2024-03-05T17:38:35.163Z,101516.00
2024-03-05T17:41:04.835Z,101511.00
2024-03-05T17:43:32.169Z,101516.00
2024-03-05T17:45:59.925Z,101518.00
2024-03-05T17:48:28.526Z,101525.00
2024-03-05T17:50:55.692Z,101527.00
2024-03-05T17:53:32.277Z,101532.00
2024-03-05T17:55:59.259Z,101540.00
2024-03-05T17:58:26.348Z,101543.00
2024-03-05T18:01:07.090Z,101560.00
2024-03-05T18:03:39.768Z,101562.00
2024-03-05T18:06:17.429Z,101565.00
2024-03-05T18:08:49.506Z,101570.00
2024-03-05T18:11:33.126Z,101564.00
2024-03-05T18:14:00.578Z,101568.00
2024-03-05T18:16:35.632Z,101572.00
2024-03-05T18:19:14.854Z,101568.00
2024-03-05T18:21:42.405Z,101571.00
2024-03-05T18:24:24.168Z,101579.00
2024-03-05T18:26:51.021Z,101577.00
2024-03-05T18:29:28.302Z,101574.00
2024-03-05T18:32:23.683Z,101572.00
2024-03-05T18:34:50.769Z,101580.00
2024-03-05T18:37:22.428Z,101585.00
2024-03-05T18:39:49.141Z,101581.00
2024-03-05T18:42:19.511Z,101584.00
2024-03-05T18:44:49.538Z,101589.00
2024-03-05T18:47:20.091Z,101578.00
2024-03-05T18:49:47.159Z,101582.00
2024-03-05T18:52:15.472Z,101582.00
2024-03-05T18:54:42.227Z,101585.00
2024-03-05T18:57:08.989Z,101582.00
2024-03-05T18:59:35.912Z,101591.00
2024-03-05T19:02:11.748Z,101597.00
2024-03-05T19:04:38.636Z,101583.00
2024-03-05T19:07:06.677Z,101590.00
2024-03-05T19:09:33.477Z,101586.00
2024-03-05T19:12:01.634Z,101588.00
2024-03-05T19:14:46.255Z,101592.00
2024-03-05T19:17:13.471Z,101588.00
2024-03-05T19:22:45.232Z,101595.00
2024-03-05T19:25:12.757Z,101587.00
2024-03-05T19:30:43.640Z,101590.00
2024-03-05T19:33:44.937Z,101590.00
2024-03-05T19:36:14.862Z,101593.00
2024-03-05T19:38:43.062Z,101592.00
2024-03-05T19:43:54.333Z,101599.00
2024-03-05T19:46:21.408Z,101594.00
2024-03-05T19:48:56.190Z,101599.00
2024-03-05T19:51:23.766Z,101597.00
2024-03-05T19:53:50.600Z,101596.00
2024-03-05T19:56:25.377Z,101596.00
2024-03-05T19:58:52.628Z,101603.00
2024-03-05T20:01:20.060Z,101601.00
2024-03-05T20:03:46.864Z,101604.00
2024-03-05T20:06:13.620Z,101602.00
2024-03-05T20:08:41.265Z,101606.00
2024-03-05T20:11:12.274Z,101600.00
2024-03-05T20:13:39.691Z,101607.00
2024-03-05T20:16:06.794Z,101608.00
2024-03-05T20:18:33.862Z,101609.00
2024-03-05T20:21:00.624Z,101619.00
2024-03-05T20:23:42.917Z,101619.00
2024-03-05T20:26:10.874Z,101626.00
2024-03-05T20:28:37.950Z,101624.00
2024-03-05T20:31:05.013Z,101631.00
2024-03-05T20:33:34.068Z,101632.00
2024-03-05T20:36:03.275Z,101627.00
2024-03-05T20:38:30.280Z,101627.00
2024-03-05T20:40:57.178Z,101629.00
2024-03-05T20:43:24.164Z,101629.00
2024-03-05T20:45:51.386Z,101633.00
2024-03-05T20:48:18.328Z,101622.00
2024-03-05T20:50:47.704Z,101631.00
2024-03-05T20:53:14.824Z,101633.00
2024-03-05T20:55:41.738Z,101628.00
2024-03-05T20:58:18.155Z,101638.00
2024-03-05T21:01:01.119Z,101632.00
2024-03-05T21:03:31.585Z,101633.00
2024-03-05T21:05:58.560Z,101644.00
2024-03-05T21:08:25.373Z,101639.00
2024-03-05T21:10:55.976Z,101648.00
2024-03-05T21:13:27.232Z,101651.00
2024-03-05T21:15:54.516Z,101647.00
2024-03-05T21:18:32.725Z,101648.00
2024-03-05T21:21:02.845Z,101645.00
2024-03-05T21:23:32.125Z,101644.00
2024-03-05T21:26:09.277Z,101648.00
2024-03-05T21:28:45.694Z,101648.00
2024-03-05T21:31:12.500Z,101652.00
2024-03-05T21:33:39.238Z,101647.00
2024-03-05T21:36:07.415Z,101653.00
2024-03-05T21:38:36.232Z,101654.00
2024-03-05T21:41:04.121Z,101663.00
2024-03-05T21:43:31.152Z,101658.00
2024-03-05T21:46:10.214Z,101668.00
2024-03-05T21:48:37.111Z,101669.00
2024-03-05T21:51:10.175Z,101673.00
2024-03-05T21:53:44.082Z,101666.00
2024-03-05T21:56:11.439Z,101672.00
2024-03-05T21:58:39.877Z,101676.00
2024-03-05T22:01:06.918Z,101679.00
2024-03-05T22:03:33.749Z,101684.00
2024-03-05T22:06:08.092Z,101682.00
2024-03-05T22:08:39.235Z,101682.00
2024-03-05T22:11:06.155Z,101681.00
2024-03-05T22:13:34.582Z,101681.00
2024-03-05T22:16:01.498Z,101676.00
2024-03-05T22:18:28.516Z,101675.00
2024-03-05T22:20:55.381Z,101679.00
2024-03-05T22:23:22.209Z,101678.00
2024-03-05T22:25:49.260Z,101679.00
2024-03-05T22:28:16.360Z,101682.00
2024-03-05T22:30:43.754Z,101687.00
2024-03-05T22:33:12.178Z,101690.00
2024-03-05T22:35:39.169Z,101703.00
2024-03-05T22:38:06.432Z,101707.00
2024-03-05T22:40:33.275Z,101707.00
2024-03-05T22:43:00.205Z,101711.00
2024-03-05T22:45:29.129Z,101710.00
2024-03-05T22:47:55.968Z,101707.00
2024-03-05T22:50:23.815Z,101702.00
2024-03-05T22:52:52.272Z,101702.00
2024-03-05T22:55:31.014Z,101707.00
2024-03-05T22:57:57.842Z,101712.00
2024-03-05T23:00:24.906Z,101705.00
2024-03-05T23:02:55.062Z,101709.00
2024-03-05T23:05:22.402Z,101701.00
2024-03-05T23:07:49.493Z,101701.00
2024-03-05T23:10:17.570Z,101708.00
2024-03-05T23:12:45.516Z,101705.00
2024-03-05T23:15:16.456Z,101708.00
2024-03-05T23:17:44.445Z,101703.00
2024-03-05T23:20:13.139Z,101707.00
2024-03-05T23:22:40.815Z,101709.00
2024-03-05T23:25:10.101Z,101712.00
2024-03-05T23:27:38.185Z,101714.00
2024-03-05T23:30:05.444Z,101712.00
2024-03-05T23:32:33.406Z,101706.00
2024-03-05T23:35:06.564Z,101708.00
2024-03-05T23:37:41.368Z,101713.00
2024-03-05T23:40:11.151Z,101714.00
2024-03-05T23:42:54.511Z,101711.00
2024-03-05T23:45:21.373Z,101706.00
2024-03-05T23:47:48.309Z,101704.00
2024-03-05T23:50:27.776Z,101707.00
2024-03-05T23:52:54.523Z,101703.00
2024-03-05T23:55:21.408Z,101707.00
2024-03-05T23:57:48.214Z,101710.00
